Time;durP1;ratioP1;P1;durP2;ratioP2;P2;SDS_P1;SDS_P2;PMS_P1;PMS_P2;Temp;Humidity;BMP_temperature;BMP_pressure;BME280_temperature;BME280_humidity;BME280_pressure;Samples;Min_cycle;Max_cycle;Signal;HPM_P1;HPM_P2
2020/12/29 00:01:39;;;;;;;2.20;1.50;;;18.90;52.10;;;;;;4971742;28;20301;-54
2020/12/29 00:04:09;;;;;;;1.80;1.50;;;18.80;52.20;;;;;;4959072;28;20193;-53
2020/12/29 00:06:50;;;;;;;1.60;1.20;;;18.80;52.30;;;;;;4970640;28;20656;-54
2020/12/29 00:09:18;;;;;;;2.63;1.50;;;18.80;52.30;;;;;;4961763;28;20197;-54
2020/12/29 00:11:45;;;;;;;1.77;1.43;;;18.70;52.30;;;;;;4965429;28;20721;-54
2020/12/29 00:14:13;;;;;;;1.97;1.37;;;18.70;52.40;;;;;;4959596;28;20216;-54
2020/12/29 00:16:40;;;;;;;2.43;1.20;;;18.60;52.50;;;;;;4977778;28;20208;-54
2020/12/29 00:19:26;;;;;;;1.47;1.30;;;18.60;52.50;;;;;;4959258;28;20197;-54
2020/12/29 00:21:52;;;;;;;1.10;1.00;;;18.60;52.60;;;;;;4969924;28;20204;-53
2020/12/29 00:24:19;;;;;;;1.97;1.30;;;18.50;52.50;;;;;;4961169;28;20208;-53
2020/12/29 00:27:04;;;;;;;1.63;1.33;;;18.50;52.60;;;;;;4966590;28;20303;-54
2020/12/29 00:29:31;;;;;;;2.23;1.80;;;18.50;52.70;;;;;;4960800;28;20242;-54
2020/12/29 00:32:02;;;;;;;2.47;1.37;;;18.40;52.80;;;;;;4969411;28;20570;-54
2020/12/29 00:34:28;;;;;;;2.13;1.50;;;18.40;52.90;;;;;;4961786;28;21906;-53
2020/12/29 00:36:54;;;;;;;1.63;1.23;;;18.40;52.90;;;;;;4970328;28;20205;-54
2020/12/29 00:39:21;;;;;;;2.47;1.67;;;18.40;52.90;;;;;;4965904;28;20200;-54
2020/12/29 00:41:47;;;;;;;2.60;1.20;;;18.40;53.00;;;;;;4968872;28;20614;-53
2020/12/29 00:44:13;;;;;;;2.67;1.63;;;18.30;53.00;;;;;;4971668;28;20204;-54
2020/12/29 00:46:40;;;;;;;2.00;1.60;;;18.30;53.00;;;;;;4968212;28;20325;-54
2020/12/29 00:49:06;;;;;;;1.80;1.20;;;18.30;53.10;;;;;;4971993;28;20215;-54
2020/12/29 00:51:32;;;;;;;1.33;1.17;;;18.30;53.20;;;;;;4962160;28;20216;-53
2020/12/29 00:53:59;;;;;;;1.53;1.40;;;18.20;53.20;;;;;;4971048;28;20243;-53
2020/12/29 00:56:25;;;;;;;1.43;1.33;;;18.20;53.30;;;;;;4959634;28;20220;-55
2020/12/29 00:58:51;;;;;;;2.00;1.13;;;18.20;53.40;;;;;;4972236;28;20205;-54
2020/12/29 01:01:17;;;;;;;2.03;1.40;;;18.10;53.30;;;;;;4964150;28;20235;-54
2020/12/29 01:03:44;;;;;;;1.90;1.50;;;18.10;53.40;;;;;;4971864;28;20197;-54
2020/12/29 01:06:11;;;;;;;2.73;1.10;;;18.10;53.50;;;;;;4964449;28;20240;-54
2020/12/29 01:08:38;;;;;;;1.77;1.40;;;18.10;53.50;;;;;;4972223;28;20568;-53
2020/12/29 01:11:04;;;;;;;3.30;1.30;;;18.00;53.50;;;;;;4960604;28;20216;-54
2020/12/29 01:13:50;;;;;;;1.30;1.00;;;18.00;53.60;;;;;;4971975;28;20197;-53
2020/12/29 01:16:16;;;;;;;2.90;1.30;;;18.00;53.60;;;;;;4962672;28;20213;-54
2020/12/29 01:18:43;;;;;;;1.77;1.13;;;18.00;53.70;;;;;;4968873;28;20561;-53
2020/12/29 01:21:10;;;;;;;1.97;1.30;;;18.00;53.70;;;;;;4963798;28;20209;-53
2020/12/29 01:23:37;;;;;;;2.43;1.67;;;18.00;53.80;;;;;;4969714;28;20204;-53
2020/12/29 01:26:04;;;;;;;2.07;1.20;;;17.90;53.80;;;;;;4971670;28;20701;-53
2020/12/29 01:28:37;;;;;;;2.27;1.47;;;17.90;53.80;;;;;;4963273;28;20204;-53
2020/12/29 01:31:04;;;;;;;1.47;1.07;;;17.90;53.80;;;;;;4968929;28;20204;-54
2020/12/29 01:33:30;;;;;;;1.67;1.13;;;17.90;53.90;;;;;;4963052;28;20233;-54
2020/12/29 01:35:56;;;;;;;1.77;1.07;;;17.90;53.90;;;;;;4968699;28;20212;-53
2020/12/29 01:38:22;;;;;;;2.00;1.37;;;17.80;53.90;;;;;;4962934;28;20213;-54
2020/12/29 01:40:49;;;;;;;1.40;1.20;;;17.80;54.00;;;;;;4970370;28;20227;-53
2020/12/29 01:43:15;;;;;;;1.97;1.17;;;17.80;54.00;;;;;;4962288;28;20211;-53
2020/12/29 01:45:41;;;;;;;1.70;1.33;;;17.80;54.00;;;;;;4974991;28;20208;-54
2020/12/29 01:48:08;;;;;;;2.30;1.30;;;17.80;54.00;;;;;;4963195;28;20212;-53
2020/12/29 01:50:35;;;;;;;1.80;1.20;;;17.80;54.10;;;;;;4969493;28;20264;-54
2020/12/29 01:53:02;;;;;;;2.30;1.30;;;17.80;54.10;;;;;;4962771;28;20208;-54
2020/12/29 01:55:29;;;;;;;2.30;1.17;;;17.70;54.20;;;;;;4972074;28;20563;-53
2020/12/29 01:57:59;;;;;;;1.47;1.10;;;17.70;54.10;;;;;;4964519;28;20790;-54
2020/12/29 02:00:25;;;;;;;1.67;1.10;;;17.70;54.20;;;;;;4969317;28;20697;-54
2020/12/29 02:02:51;;;;;;;1.83;1.27;;;17.70;54.20;;;;;;4967211;28;20633;-53
2020/12/29 02:05:18;;;;;;;1.50;1.20;;;17.70;54.20;;;;;;4963847;28;20642;-53
2020/12/29 02:07:48;;;;;;;1.57;1.00;;;17.70;54.40;;;;;;4971434;28;20203;-54
2020/12/29 02:10:15;;;;;;;2.13;1.30;;;17.60;54.30;;;;;;4959826;28;20213;-53
2020/12/29 02:12:41;;;;;;;1.73;1.23;;;17.60;54.40;;;;;;4971656;28;20209;-54
2020/12/29 02:15:08;;;;;;;2.17;1.30;;;17.60;54.40;;;;;;4960364;28;20217;-53
2020/12/29 02:17:35;;;;;;;1.60;1.20;;;17.60;54.40;;;;;;4981832;28;20787;-54
2020/12/29 02:20:10;;;;;;;2.13;1.20;;;17.60;54.40;;;;;;4967007;28;20350;-54
2020/12/29 02:22:37;;;;;;;1.10;1.00;;;17.60;54.40;;;;;;4969669;28;20661;-54
2020/12/29 02:25:05;;;;;;;1.50;1.20;;;17.60;54.50;;;;;;4960794;28;20205;-54
2020/12/29 02:27:52;;;;;;;9.07;1.40;;;17.50;54.40;;;;;;4968321;28;20212;-54
2020/12/29 02:30:19;;;;;;;1.33;1.20;;;17.50;54.50;;;;;;4959870;28;20213;-54
2020/12/29 02:32:46;;;;;;;2.33;1.30;;;17.50;54.50;;;;;;4969067;28;20216;-54
2020/12/29 02:35:16;;;;;;;2.23;1.83;;;17.50;54.60;;;;;;4963091;28;20725;-54
2020/12/29 02:37:44;;;;;;;1.53;1.20;;;17.50;54.50;;;;;;4976916;28;20196;-54
2020/12/29 02:40:11;;;;;;;1.37;1.13;;;17.50;54.60;;;;;;4957076;28;20225;-54
2020/12/29 02:42:37;;;;;;;1.67;1.10;;;17.50;54.60;;;;;;4971265;28;20197;-54
2020/12/29 02:45:06;;;;;;;1.60;1.30;;;17.40;54.60;;;;;;4964068;28;20208;-54
2020/12/29 02:47:32;;;;;;;1.57;1.20;;;17.40;54.60;;;;;;4973686;28;20209;-54
2020/12/29 02:49:58;;;;;;;1.47;1.10;;;17.40;54.70;;;;;;4979090;28;20212;-53
2020/12/29 02:52:25;;;;;;;1.80;1.17;;;17.40;54.70;;;;;;4974264;28;20193;-53
2020/12/29 02:54:51;;;;;;;1.53;1.03;;;17.40;54.70;;;;;;4973903;28;20197;-53
2020/12/29 02:57:17;;;;;;;1.27;1.00;;;17.40;54.80;;;;;;4965673;28;20244;-53
2020/12/29 02:59:46;;;;;;;1.03;0.93;;;17.30;54.70;;;;;;4976678;28;20244;-53
2020/12/29 03:02:12;;;;;;;2.37;1.30;;;17.30;54.80;;;;;;4965787;28;20198;-53
2020/12/29 03:04:38;;;;;;;1.20;1.10;;;17.30;54.70;;;;;;4980962;28;20207;-53
2020/12/29 03:07:05;;;;;;;1.60;1.10;;;17.30;54.80;;;;;;4965417;28;20201;-53
2020/12/29 03:09:31;;;;;;;2.50;1.13;;;17.30;54.80;;;;;;4980035;28;20209;-53
2020/12/29 03:11:57;;;;;;;2.50;1.47;;;17.30;54.80;;;;;;4968736;28;20212;-53
2020/12/29 03:14:24;;;;;;;2.07;1.20;;;17.30;54.80;;;;;;4971189;28;20244;-53
2020/12/29 03:16:50;;;;;;;1.63;1.37;;;17.30;54.80;;;;;;4965690;28;20205;-53
2020/12/29 03:19:22;;;;;;;1.27;0.90;;;17.30;54.90;;;;;;4980306;28;20209;-54
2020/12/29 03:21:49;;;;;;;1.77;1.30;;;17.30;54.90;;;;;;4966719;28;20608;-53
2020/12/29 03:24:16;;;;;;;1.30;1.10;;;17.30;55.00;;;;;;4972485;28;20205;-53
2020/12/29 03:26:42;;;;;;;1.53;1.30;;;17.30;55.00;;;;;;4966448;28;20205;-53
2020/12/29 03:29:08;;;;;;;1.57;1.30;;;17.20;54.90;;;;;;4972223;28;20216;-53
2020/12/29 03:31:36;;;;;;;1.20;1.10;;;17.20;55.00;;;;;;4967595;28;20231;-54
2020/12/29 03:34:02;;;;;;;2.10;1.13;;;17.20;55.00;;;;;;4970026;28;20233;-53
2020/12/29 03:36:28;;;;;;;1.90;1.40;;;17.20;55.00;;;;;;4974239;28;20407;-53
2020/12/29 03:38:55;;;;;;;1.57;1.30;;;17.20;55.00;;;;;;4963908;28;20219;-53
2020/12/29 03:41:21;;;;;;;1.90;1.10;;;17.20;55.00;;;;;;4972724;28;20217;-53
2020/12/29 03:43:47;;;;;;;2.57;1.20;;;17.20;55.00;;;;;;4964742;28;20197;-53
2020/12/29 03:46:13;;;;;;;1.50;1.03;;;17.10;55.00;;;;;;4971532;28;20654;-53
2020/12/29 03:48:40;;;;;;;1.37;0.93;;;17.20;55.20;;;;;;4963590;28;20220;-53
2020/12/29 03:51:06;;;;;;;1.90;1.10;;;17.10;55.10;;;;;;4973885;28;20201;-53
2020/12/29 03:53:32;;;;;;;1.10;0.90;;;17.10;55.10;;;;;;4963812;28;20662;-53
2020/12/29 03:55:58;;;;;;;1.53;1.10;;;17.10;55.10;;;;;;4971788;28;20209;-53
2020/12/29 03:58:25;;;;;;;1.63;1.20;;;17.10;55.10;;;;;;4971018;28;20561;-53
2020/12/29 04:00:51;;;;;;;1.37;1.13;;;17.10;55.10;;;;;;4972957;28;20212;-52
2020/12/29 04:03:17;;;;;;;1.53;1.00;;;17.10;55.20;;;;;;4971216;28;20193;-53
2020/12/29 04:05:43;;;;;;;1.47;1.10;;;17.10;55.20;;;;;;4969542;28;20208;-53
2020/12/29 04:08:15;;;;;;;1.20;0.93;;;17.10;55.20;;;;;;4964217;28;20805;-53
2020/12/29 04:10:42;;;;;;;1.30;1.10;;;17.10;55.20;;;;;;4972773;28;20267;-53
2020/12/29 04:13:08;;;;;;;2.40;1.17;;;17.10;55.30;;;;;;4971298;28;20219;-53
2020/12/29 04:15:34;;;;;;;1.70;1.20;;;17.10;55.30;;;;;;4967043;28;20208;-53
2020/12/29 04:18:01;;;;;;;1.30;0.93;;;17.10;55.30;;;;;;4971622;28;20204;-53
2020/12/29 04:20:27;;;;;;;1.93;1.50;;;17.00;55.30;;;;;;4964285;28;20239;-53
2020/12/29 04:22:53;;;;;;;0.80;0.80;;;17.10;55.40;;;;;;4970569;28;20216;-55
2020/12/29 04:25:19;;;;;;;1.37;1.00;;;17.00;55.30;;;;;;4967489;28;20208;-52
2020/12/29 04:27:46;;;;;;;1.63;1.40;;;17.00;55.40;;;;;;4984603;28;20201;-55
2020/12/29 04:30:12;;;;;;;1.73;1.33;;;17.00;55.40;;;;;;4962908;28;20204;-54
2020/12/29 04:32:40;;;;;;;1.17;0.90;;;17.00;55.40;;;;;;4969822;28;20201;-53
2020/12/29 04:35:07;;;;;;;1.30;1.20;;;17.00;55.40;;;;;;4966820;28;20220;-52
2020/12/29 04:37:35;;;;;;;2.27;1.30;;;17.00;55.50;;;;;;4973486;28;20339;-53
2020/12/29 04:40:04;;;;;;;1.23;1.10;;;17.00;55.50;;;;;;4964866;28;20233;-53
2020/12/29 04:42:31;;;;;;;1.77;1.20;;;17.00;55.50;;;;;;4970700;28;20209;-53
2020/12/29 04:44:57;;;;;;;1.93;1.07;;;17.00;55.50;;;;;;4967035;28;20212;-53
2020/12/29 04:47:30;;;;;;;1.70;1.07;;;17.00;55.50;;;;;;4975055;28;20194;-55
2020/12/29 04:49:59;;;;;;;1.70;1.00;;;17.00;55.50;;;;;;4964436;28;20197;-55
2020/12/29 04:52:26;;;;;;;1.47;1.20;;;17.00;55.50;;;;;;4971618;28;20200;-54
2020/12/29 04:54:54;;;;;;;2.10;1.30;;;17.00;55.40;;;;;;4973926;28;20221;-55
2020/12/29 04:57:23;;;;;;;1.77;0.90;;;17.00;55.50;;;;;;4961820;28;20208;-54
2020/12/29 04:59:53;;;;;;;1.00;0.90;;;16.90;55.40;;;;;;4971437;28;20633;-54
2020/12/29 05:02:19;;;;;;;1.23;1.07;;;16.90;55.40;;;;;;4962520;28;20260;-55
2020/12/29 05:04:45;;;;;;;2.03;1.20;;;16.90;55.50;;;;;;4971349;28;20197;-54
2020/12/29 05:07:12;;;;;;;2.10;1.20;;;16.90;55.50;;;;;;4965275;28;20201;-54
2020/12/29 05:09:38;;;;;;;1.77;1.20;;;16.90;55.50;;;;;;4973735;28;20207;-54
2020/12/29 05:12:05;;;;;;;1.30;1.10;;;16.90;55.50;;;;;;4961682;28;20200;-54
2020/12/29 05:14:32;;;;;;;1.50;1.23;;;16.90;55.50;;;;;;4971940;28;20249;-55
2020/12/29 05:16:58;;;;;;;1.37;1.27;;;16.90;55.40;;;;;;4962247;28;20246;-54
2020/12/29 05:19:24;;;;;;;1.50;1.30;;;16.90;55.50;;;;;;4971765;28;20207;-54
2020/12/29 05:21:51;;;;;;;1.40;1.30;;;16.90;55.50;;;;;;4970521;28;20224;-55
2020/12/29 05:24:20;;;;;;;1.53;0.90;;;16.90;55.50;;;;;;4967772;28;20208;-54
2020/12/29 05:26:57;;;;;;;1.40;1.30;;;16.90;55.50;;;;;;4963706;28;20217;-54
2020/12/29 05:29:25;;;;;;;1.30;1.20;;;16.90;55.50;;;;;;4969981;28;20200;-54
2020/12/29 05:31:52;;;;;;;2.53;1.60;;;16.90;55.50;;;;;;4963198;28;20200;-54
2020/12/29 05:34:21;;;;;;;1.53;1.20;;;16.90;55.50;;;;;;4969386;28;20646;-54
2020/12/29 05:36:49;;;;;;;1.77;1.60;;;16.90;55.50;;;;;;4964773;28;20201;-55
2020/12/29 05:39:20;;;;;;;1.37;1.10;;;16.90;55.50;;;;;;4971620;28;20216;-54
2020/12/29 05:41:51;;;;;;;1.07;0.90;;;16.90;55.60;;;;;;4973288;28;20224;-54
2020/12/29 05:44:35;;;;;;;1.07;0.93;;;16.90;55.60;;;;;;4963871;28;20676;-54
2020/12/29 05:47:03;;;;;;;2.13;1.20;;;16.90;55.50;;;;;;4968281;28;20209;-54
2020/12/29 05:49:31;;;;;;;1.83;1.30;;;16.80;55.40;;;;;;4963298;28;20209;-54
2020/12/29 05:51:58;;;;;;;1.97;1.20;;;16.80;55.50;;;;;;4974279;28;20607;-54
2020/12/29 05:54:26;;;;;;;1.10;1.00;;;16.80;55.50;;;;;;4962992;28;20278;-54
2020/12/29 05:56:54;;;;;;;1.53;1.03;;;16.90;55.50;;;;;;4976246;28;20204;-54
2020/12/29 05:59:20;;;;;;;1.70;1.10;;;16.80;55.50;;;;;;4962129;28;20205;-54
2020/12/29 06:01:52;;;;;;;1.47;1.20;;;16.80;55.40;;;;;;4970343;28;20224;-54
2020/12/29 06:04:20;;;;;;;2.07;1.20;;;16.80;55.50;;;;;;4961938;28;20620;-54
2020/12/29 06:06:48;;;;;;;1.40;1.30;;;16.80;55.50;;;;;;4965092;28;20556;-55
2020/12/29 06:09:16;;;;;;;2.70;1.30;;;16.80;55.50;;;;;;4959209;28;20197;-54
2020/12/29 06:11:49;;;;;;;1.63;1.10;;;16.80;55.50;;;;;;4968185;28;20220;-53
2020/12/29 06:14:17;;;;;;;2.30;1.30;;;16.80;55.50;;;;;;4966465;28;20652;-53
2020/12/29 06:16:44;;;;;;;2.30;1.20;;;16.80;55.50;;;;;;4978080;28;20220;-54
2020/12/29 06:19:24;;;;;;;1.83;1.37;;;16.80;55.50;;;;;;4966851;28;20193;-54
2020/12/29 06:22:11;;;;;;;4.23;1.63;;;16.80;55.50;;;;;;4971767;28;20220;-54
2020/12/29 06:24:43;;;;;;;2.67;1.23;;;16.80;55.60;;;;;;4967116;28;20597;-53
2020/12/29 06:27:12;;;;;;;2.93;1.30;;;16.80;55.60;;;;;;4972894;28;20205;-54
2020/12/29 06:29:40;;;;;;;2.40;1.37;;;16.80;55.50;;;;;;4968555;28;20286;-53
2020/12/29 06:32:16;;;;;;;2.00;1.30;;;16.80;55.50;;;;;;4972627;28;20212;-53
2020/12/29 06:34:44;;;;;;;1.33;1.10;;;16.80;55.60;;;;;;4967016;28;20224;-54
2020/12/29 06:37:30;;;;;;;1.73;1.00;;;16.80;55.60;;;;;;4971203;28;20205;-53
2020/12/29 06:40:05;;;;;;;3.10;1.43;;;16.70;55.50;;;;;;4966258;28;20231;-53
2020/12/29 06:42:34;;;;;;;1.20;1.03;;;16.80;55.60;;;;;;4972656;28;20205;-57
2020/12/29 06:45:06;;;;;;;1.47;1.20;;;16.70;55.50;;;;;;4959370;28;20208;-54
2020/12/29 06:47:32;;;;;;;1.20;1.10;;;16.70;55.50;;;;;;4971286;28;20814;-54
2020/12/29 06:49:58;;;;;;;1.97;1.30;;;16.70;55.50;;;;;;4967518;28;20239;-54
2020/12/29 06:52:25;;;;;;;1.47;1.33;;;16.70;55.50;;;;;;4972102;28;20197;-54
2020/12/29 06:55:01;;;;;;;1.57;1.40;;;16.70;55.40;;;;;;4975427;28;20205;-54
2020/12/29 06:57:33;;;;;;;1.47;1.10;;;16.70;55.50;;;;;;4968420;28;20189;-54
2020/12/29 07:00:12;;;;;;;1.63;1.20;;;16.70;55.50;;;;;;4973235;28;20189;-54
2020/12/29 07:02:40;;;;;;;2.37;1.27;;;16.70;55.50;;;;;;4967100;28;20239;-54
2020/12/29 07:05:17;;;;;;;2.33;1.50;;;16.70;55.50;;;;;;4976836;28;20529;-54
2020/12/29 07:08:04;;;;;;;2.57;1.40;;;16.70;55.50;;;;;;4962232;28;20581;-54
2020/12/29 07:10:37;;;;;;;2.97;1.00;;;16.70;55.50;;;;;;4973276;28;20201;-53
2020/12/29 07:13:05;;;;;;;2.17;1.30;;;16.70;55.50;;;;;;4967797;28;20696;-53
2020/12/29 07:15:44;;;;;;;1.47;1.27;;;16.70;55.50;;;;;;4972891;28;20201;-54
2020/12/29 07:18:10;;;;;;;2.43;1.30;;;16.70;55.50;;;;;;4964922;28;20831;-54
2020/12/29 07:20:37;;;;;;;2.00;1.27;;;16.70;55.50;;;;;;4972214;28;20212;-54
2020/12/29 07:23:08;;;;;;;2.20;1.43;;;16.70;55.50;;;;;;4964421;28;20211;-54
2020/12/29 07:25:36;;;;;;;2.07;1.50;;;16.70;55.40;;;;;;4972854;28;20212;-54
2020/12/29 07:28:06;;;;;;;2.47;1.50;;;16.70;55.50;;;;;;4965365;28;20193;-54
2020/12/29 07:30:38;;;;;;;1.43;1.33;;;16.60;55.40;;;;;;4980889;28;20230;-54
2020/12/29 07:33:06;;;;;;;3.17;1.50;;;16.60;55.40;;;;;;4969771;28;20205;-54
2020/12/29 07:36:01;;;;;;;4.23;1.40;;;16.60;55.50;;;;;;4972736;28;20213;-54
2020/12/29 07:38:28;;;;;;;2.53;1.23;;;16.60;55.40;;;;;;4960773;28;20220;-54
2020/12/29 07:40:54;;;;;;;1.80;1.50;;;16.60;55.50;;;;;;4968705;28;20236;-54
2020/12/29 07:43:20;;;;;;;2.63;1.40;;;16.60;55.40;;;;;;4965421;28;20212;-54
2020/12/29 07:45:47;;;;;;;2.20;1.67;;;16.60;55.40;;;;;;4973274;28;20213;-53
2020/12/29 07:48:13;;;;;;;2.43;1.53;;;16.60;55.40;;;;;;4963323;28;20201;-54
2020/12/29 07:50:40;;;;;;;3.87;1.63;;;16.60;55.50;;;;;;4971025;28;20267;-54
2020/12/29 07:53:09;;;;;;;2.87;1.50;;;16.60;55.50;;;;;;4964626;28;20620;-54
2020/12/29 07:55:36;;;;;;;2.43;1.80;;;16.60;55.50;;;;;;4969962;28;20203;-54
2020/12/29 07:58:04;;;;;;;1.60;1.40;;;16.60;55.50;;;;;;4963435;28;20209;-53
2020/12/29 08:00:32;;;;;;;3.33;1.60;;;16.60;55.50;;;;;;4971114;28;20213;-54
2020/12/29 08:02:58;;;;;;;1.67;1.57;;;16.60;55.50;;;;;;4961576;28;20201;-54
2020/12/29 08:05:29;;;;;;;3.73;1.47;;;16.60;55.50;;;;;;4971169;28;20215;-54
2020/12/29 08:08:09;;;;;;;2.67;1.80;;;16.60;55.50;;;;;;4968578;28;20212;-53
2020/12/29 08:10:37;;;;;;;1.90;1.50;;;16.60;55.50;;;;;;4973973;28;20204;-53
2020/12/29 08:13:05;;;;;;;3.20;1.53;;;16.50;55.40;;;;;;4970361;28;20251;-54
2020/12/29 08:15:37;;;;;;;1.50;1.40;;;16.50;56.00;;;;;;4961340;28;20208;-54
2020/12/29 08:18:09;;;;;;;1.87;1.60;;;16.50;55.40;;;;;;4971967;28;20219;-54
2020/12/29 08:20:50;;;;;;;3.17;1.70;;;16.50;55.40;;;;;;4964118;28;20216;-53
2020/12/29 08:23:20;;;;;;;3.23;1.70;;;16.50;55.40;;;;;;4970998;28;20205;-53
2020/12/29 08:26:02;;;;;;;2.10;1.83;;;16.50;55.40;;;;;;4963316;28;20197;-53
2020/12/29 08:28:30;;;;;;;2.60;1.90;;;16.50;55.50;;;;;;4970356;28;20207;-53
2020/12/29 08:31:03;;;;;;;3.33;2.00;;;16.50;55.50;;;;;;4963527;28;20216;-54
2020/12/29 08:33:31;;;;;;;3.23;1.97;;;16.50;55.40;;;;;;4970354;28;20209;-54
2020/12/29 08:36:01;;;;;;;4.30;1.83;;;16.50;55.40;;;;;;4962737;28;20215;-54
2020/12/29 08:38:30;;;;;;;9.53;2.33;;;16.50;55.70;;;;;;4970143;28;20208;-54
2020/12/29 08:41:08;;;;;;;5.53;2.23;;;16.50;55.90;;;;;;4962021;28;20287;-54
2020/12/29 08:43:39;;;;;;;12.13;2.30;;;16.50;55.90;;;;;;4968547;28;20197;-54
2020/12/29 08:46:08;;;;;;;6.13;2.37;;;16.50;55.80;;;;;;4960837;28;20193;-54
2020/12/29 08:48:34;;;;;;;4.73;2.37;;;16.50;55.70;;;;;;4969123;28;20205;-54
2020/12/29 08:51:19;;;;;;;6.00;2.30;;;16.50;55.60;;;;;;4963535;28;20871;-54
2020/12/29 08:53:46;;;;;;;6.83;2.77;;;16.50;55.50;;;;;;4970399;28;20553;-54
2020/12/29 08:56:26;;;;;;;7.73;2.57;;;16.50;55.50;;;;;;4959968;28;20240;-53
2020/12/29 08:58:54;;;;;;;3.40;2.40;;;16.50;55.40;;;;;;4970063;28;20204;-54
2020/12/29 09:01:38;;;;;;;5.87;2.00;;;16.40;55.20;;;;;;4958597;28;20220;-54
2020/12/29 09:04:20;;;;;;;3.87;2.43;;;16.40;55.20;;;;;;4967444;28;21169;-54
2020/12/29 09:07:01;;;;;;;3.33;2.47;;;16.40;55.10;;;;;;4960013;28;20213;-54
2020/12/29 09:09:30;;;;;;;3.63;2.40;;;16.40;55.10;;;;;;4968233;28;20190;-54
2020/12/29 09:12:13;;;;;;;4.67;2.33;;;16.50;55.10;;;;;;4961928;28;20218;-54
2020/12/29 09:14:53;;;;;;;3.30;2.43;;;16.40;55.00;;;;;;4968873;28;20208;-53
2020/12/29 09:17:21;;;;;;;7.47;2.40;;;16.50;55.60;;;;;;4961062;28;20217;-53
2020/12/29 09:20:18;;;;;;;4.80;2.73;;;16.40;54.80;;;;;;4952224;28;20312;-54
2020/12/29 09:23:07;;;;;;;4.70;2.50;;;16.50;54.90;;;;;;4961469;28;20204;-54
2020/12/29 09:25:36;;;;;;;3.57;2.30;;;16.40;54.80;;;;;;4969550;28;20219;-54
2020/12/29 09:28:24;;;;;;;5.30;2.93;;;16.40;54.80;;;;;;4959159;28;20204;-54
2020/12/29 09:31:04;;;;;;;4.17;2.67;;;16.40;54.70;;;;;;4967932;28;20671;-54
2020/12/29 09:33:33;;;;;;;3.47;2.70;;;16.50;54.80;;;;;;4956196;28;20239;-54
2020/12/29 09:36:02;;;;;;;3.30;2.27;;;16.40;54.80;;;;;;4951679;28;20217;-54
2020/12/29 09:38:32;;;;;;;4.90;3.13;;;16.40;54.80;;;;;;4945349;28;20224;-54
2020/12/29 09:41:00;;;;;;;3.27;2.67;;;16.40;54.80;;;;;;4930897;28;20217;-53
2020/12/29 09:43:26;;;;;;;3.83;2.63;;;16.40;55.30;;;;;;4945062;28;20206;-54
2020/12/29 09:45:53;;;;;;;4.37;2.80;;;16.40;54.70;;;;;;4953368;28;20209;-54
2020/12/29 09:48:19;;;;;;;5.43;2.63;;;16.40;54.70;;;;;;4948772;28;20220;-54
2020/12/29 09:50:46;;;;;;;4.07;2.93;;;16.40;54.70;;;;;;4953185;28;20221;-54
2020/12/29 09:53:12;;;;;;;4.07;2.70;;;16.40;54.80;;;;;;4948911;28;20202;-54
2020/12/29 09:55:39;;;;;;;3.67;2.70;;;16.40;54.80;;;;;;4954634;28;20220;-54
2020/12/29 09:58:05;;;;;;;4.33;3.13;;;16.40;54.90;;;;;;4948590;28;20209;-54
2020/12/29 10:00:32;;;;;;;4.87;3.43;;;16.40;54.90;;;;;;4954882;28;20217;-54
2020/12/29 10:02:59;;;;;;;4.13;3.30;;;16.40;55.00;;;;;;4947120;28;20217;-54
2020/12/29 10:05:26;;;;;;;3.43;3.10;;;16.40;55.00;;;;;;4956323;28;20211;-54
2020/12/29 10:07:53;;;;;;;4.00;2.90;;;16.40;55.00;;;;;;4951929;28;20202;-54
2020/12/29 10:10:20;;;;;;;5.63;3.50;;;16.40;55.00;;;;;;4928961;28;20221;-54
2020/12/29 10:12:46;;;;;;;5.00;3.20;;;16.40;54.90;;;;;;4956193;28;20655;-53
2020/12/29 10:15:12;;;;;;;5.83;3.97;;;16.40;55.50;;;;;;4945185;28;20213;-54
2020/12/29 10:17:44;;;;;;;6.17;4.30;;;16.40;54.90;;;;;;4943906;28;20208;-54
2020/12/29 10:20:10;;;;;;;6.83;3.73;;;16.40;54.80;;;;;;4939578;28;20216;-54
2020/12/29 10:22:36;;;;;;;6.20;4.23;;;16.40;54.80;;;;;;4953999;28;20218;-54
2020/12/29 10:25:04;;;;;;;5.73;3.97;;;16.40;54.80;;;;;;4946501;28;20198;-54
2020/12/29 10:27:31;;;;;;;7.60;4.17;;;16.40;54.80;;;;;;4956467;28;20210;-54
2020/12/29 10:29:57;;;;;;;7.73;4.07;;;16.40;54.70;;;;;;4943032;28;20586;-54
2020/12/29 10:32:23;;;;;;;5.70;4.20;;;16.40;54.70;;;;;;4940566;28;20224;-53
2020/12/29 10:34:50;;;;;;;7.00;4.33;;;16.40;54.70;;;;;;4930957;28;20241;-55
2020/12/29 10:37:16;;;;;;;8.53;4.93;;;16.40;55.00;;;;;;4941118;28;20202;-54
2020/12/29 10:39:43;;;;;;;10.30;4.40;;;16.40;55.20;;;;;;4936374;28;21452;-54
2020/12/29 10:42:10;;;;;;;6.47;4.50;;;16.40;55.50;;;;;;4942432;28;20233;-53
2020/12/29 10:44:36;;;;;;;7.80;4.63;;;16.30;55.80;;;;;;4935563;28;20843;-54
2020/12/29 10:47:03;;;;;;;7.30;5.30;;;16.40;56.10;;;;;;4941565;28;20290;-54
2020/12/29 10:49:29;;;;;;;10.47;5.10;;;16.30;56.10;;;;;;4944750;28;22195;-53
2020/12/29 10:51:55;;;;;;;9.77;4.90;;;16.30;56.30;;;;;;4937923;28;20218;-55
2020/12/29 10:54:23;;;;;;;5.70;4.67;;;16.30;56.10;;;;;;4945484;28;20214;-54
2020/12/29 10:56:50;;;;;;;7.23;4.43;;;16.40;56.30;;;;;;4936273;28;20214;-54
2020/12/29 10:59:16;;;;;;;7.37;4.60;;;16.40;56.10;;;;;;4942701;28;20205;-53
2020/12/29 11:01:42;;;;;;;9.70;4.83;;;16.30;56.00;;;;;;4937263;28;20232;-53
2020/12/29 11:04:09;;;;;;;5.53;4.40;;;16.40;56.10;;;;;;4942328;28;20213;-53
2020/12/29 11:06:35;;;;;;;6.23;4.57;;;16.40;56.10;;;;;;4936763;28;21977;-54
2020/12/29 11:09:02;;;;;;;8.17;5.03;;;16.40;56.30;;;;;;4942886;28;20209;-53
2020/12/29 11:11:29;;;;;;;8.70;4.30;;;16.30;56.10;;;;;;4920442;28;20217;-54
2020/12/29 11:13:55;;;;;;;5.37;4.67;;;16.40;56.20;;;;;;4944913;28;20915;-53
2020/12/29 11:16:22;;;;;;;5.90;4.43;;;16.40;56.20;;;;;;4935167;28;20210;-54
2020/12/29 11:18:49;;;;;;;5.80;4.43;;;16.40;56.10;;;;;;4940892;28;20570;-54
2020/12/29 11:21:20;;;;;;;7.27;5.20;;;16.40;56.10;;;;;;4940087;28;20213;-54
2020/12/29 11:23:47;;;;;;;8.20;4.83;;;16.40;56.30;;;;;;4948208;28;20217;-53
2020/12/29 11:26:18;;;;;;;6.90;4.67;;;16.40;56.30;;;;;;4939831;28;20245;-54
2020/12/29 11:28:44;;;;;;;6.93;4.83;;;16.30;56.50;;;;;;4937934;28;20737;-54
2020/12/29 11:31:19;;;;;;;7.50;4.60;;;16.40;56.60;;;;;;4950933;28;20198;-54
2020/12/29 11:33:46;;;;;;;5.73;4.60;;;16.40;57.10;;;;;;4943659;28;20236;-55
2020/12/29 11:36:18;;;;;;;5.20;4.20;;;16.40;57.00;;;;;;4971841;28;20208;-54
2020/12/29 11:38:45;;;;;;;6.13;4.20;;;16.40;57.10;;;;;;4964487;28;20212;-54
2020/12/29 11:41:11;;;;;;;6.77;4.93;;;16.40;57.00;;;;;;4969754;28;20231;-54
2020/12/29 11:43:39;;;;;;;8.27;4.97;;;16.30;57.10;;;;;;4964656;28;20209;-54
2020/12/29 11:46:06;;;;;;;7.23;4.70;;;16.40;57.40;;;;;;4971373;28;20209;-55
2020/12/29 11:48:33;;;;;;;8.37;4.87;;;16.40;57.70;;;;;;4965578;28;20209;-54
2020/12/29 11:50:59;;;;;;;6.40;5.20;;;16.30;58.00;;;;;;4967655;28;20704;-54
2020/12/29 11:53:26;;;;;;;7.07;4.87;;;16.30;57.70;;;;;;4954389;28;20214;-54
2020/12/29 11:55:52;;;;;;;6.30;4.93;;;16.30;57.60;;;;;;4968474;28;20201;-54
2020/12/29 11:58:19;;;;;;;6.77;4.73;;;16.30;57.70;;;;;;4963087;28;20217;-54
2020/12/29 12:00:45;;;;;;;6.57;4.60;;;16.30;57.80;;;;;;4970220;28;20216;-55
2020/12/29 12:03:22;;;;;;;5.30;4.57;;;16.30;58.00;;;;;;4965331;28;20193;-54
2020/12/29 12:05:48;;;;;;;5.57;4.63;;;16.30;58.10;;;;;;4969871;28;20205;-54
2020/12/29 12:08:14;;;;;;;4.83;4.33;;;16.40;57.70;;;;;;4963540;28;20186;-54
2020/12/29 12:10:40;;;;;;;6.57;4.30;;;16.30;57.90;;;;;;4966927;28;20197;-54
2020/12/29 12:13:07;;;;;;;4.50;3.87;;;16.30;57.70;;;;;;4971026;28;20662;-55
2020/12/29 12:15:53;;;;;;;5.03;4.40;;;16.40;57.70;;;;;;4961406;28;20216;-54
2020/12/29 12:18:34;;;;;;;5.53;4.30;;;16.40;57.50;;;;;;4940205;28;20204;-55
2020/12/29 12:21:01;;;;;;;4.60;3.87;;;16.30;57.60;;;;;;4965147;28;20244;-54
2020/12/29 12:23:28;;;;;;;4.87;3.93;;;16.40;57.50;;;;;;4971351;28;20773;-54
2020/12/29 12:25:54;;;;;;;7.00;4.53;;;16.30;57.80;;;;;;4966524;28;20595;-54
2020/12/29 12:28:27;;;;;;;4.77;3.90;;;16.40;58.40;;;;;;5054444;27;20596;-55
2020/12/29 12:30:54;;;;;;;7.57;3.80;;;16.40;58.70;;;;;;5041077;28;20258;-55
2020/12/29 12:33:20;;;;;;;3.80;3.40;;;16.40;58.50;;;;;;5046912;28;20214;-56
2020/12/29 12:35:46;;;;;;;5.03;3.97;;;16.40;58.80;;;;;;5042730;28;20217;-55
2020/12/29 12:38:13;;;;;;;4.00;3.50;;;16.40;59.20;;;;;;5047876;28;20218;-56
2020/12/29 12:40:39;;;;;;;4.93;3.80;;;16.50;59.10;;;;;;5043284;28;20212;-55
2020/12/29 12:43:05;;;;;;;6.23;3.40;;;16.40;59.10;;;;;;5043307;28;20740;-60
2020/12/29 12:45:32;;;;;;;7.33;3.17;;;16.80;58.30;;;;;;5038194;28;20221;-57
2020/12/29 12:47:58;;;;;;;6.00;2.83;;;17.70;56.60;;;;;;5025144;28;20604;-57
2020/12/29 12:50:24;;;;;;;3.07;2.50;;;18.30;54.90;;;;;;5053298;28;20217;-57
2020/12/29 12:52:50;;;;;;;4.20;2.53;;;18.70;53.50;;;;;;5055059;28;20209;-61
2020/12/29 12:55:17;;;;;;;7.43;2.70;;;18.90;53.90;;;;;;5030035;28;20227;-59